Time;durP1;ratioP1;P1;durP2;ratioP2;P2;SDS_P1;SDS_P2;PMS_P1;PMS_P2;Temp;Humidity;BMP_temperature;BMP_pressure;BME280_temperature;BME280_humidity;BME280_pressure;Samples;Min_cycle;Max_cycle;Signal;HPM_P1;HPM_P2
2023/06/20 00:00:07;;;;;;;1.58;1.48;;;;;;;19.34;100.00;99828.94;6180816;23;20454;-90
2023/06/20 00:02:33;;;;;;;1.98;1.48;;;;;;;19.32;100.00;99825.84;6182623;23;20108;-91
2023/06/20 00:05:00;;;;;;;1.65;1.45;;;;;;;19.39;100.00;99819.75;6179460;23;20091;-91
2023/06/20 00:07:25;;;;;;;1.88;1.70;;;;;;;19.30;100.00;99817.13;6180863;23;20012;-91
2023/06/20 00:09:51;;;;;;;1.63;1.50;;;;;;;19.41;100.00;99834.06;6182233;23;20042;-91
2023/06/20 00:12:16;;;;;;;4.82;1.80;;;;;;;19.43;100.00;99828.75;6185437;23;20016;-91
2023/06/20 00:14:42;;;;;;;1.27;1.17;;;;;;;19.28;100.00;99808.44;6160377;23;20021;-90
2023/06/20 00:17:07;;;;;;;2.78;1.35;;;;;;;19.17;100.00;99791.50;6185693;23;20142;-90
2023/06/20 00:19:33;;;;;;;2.20;1.50;;;;;;;19.31;100.00;99821.50;6184782;23;20071;-91
2023/06/20 00:22:02;;;;;;;1.33;1.23;;;;;;;19.30;100.00;99817.13;6184785;23;20024;-91
2023/06/20 00:24:34;;;;;;;1.95;1.63;;;;;;;19.30;100.00;99819.94;6137313;23;20016;-91
2023/06/20 00:27:03;;;;;;;1.33;1.05;;;;;;;19.27;100.00;99826.59;6160967;23;20086;-90
2023/06/20 00:29:30;;;;;;;2.58;1.52;;;;;;;19.18;100.00;99817.56;6160419;23;20008;-91
2023/06/20 00:31:55;;;;;;;0.55;0.40;;;;;;;19.11;100.00;99810.38;6160971;23;20246;-90
2023/06/20 00:34:22;;;;;;;1.83;1.45;;;;;;;19.16;100.00;99820.91;6211298;23;20066;-90
2023/06/20 00:36:47;;;;;;;0.57;0.57;;;;;;;19.15;100.00;99815.78;6212148;23;20016;-91
2023/06/20 00:39:13;;;;;;;0.80;0.80;;;;;;;19.19;100.00;99810.69;6136896;23;20020;-89
2023/06/20 00:41:39;;;;;;;0.68;0.68;;;;;;;19.20;100.00;99815.03;6170667;23;20028;-90
2023/06/20 00:44:04;;;;;;;2.13;1.27;;;;;;;19.14;100.00;99825.47;6135259;23;20007;-90
2023/06/20 00:46:32;;;;;;;0.75;0.73;;;;;;;19.16;100.00;99832.16;6185125;23;20012;-91
2023/06/20 00:48:58;;;;;;;1.17;1.08;;;;;;;19.14;100.00;99820.63;6160766;23;20012;-91
2023/06/20 00:51:28;;;;;;;1.45;0.98;;;;;;;19.22;100.00;99815.28;6159491;23;20012;-91
2023/06/20 00:53:54;;;;;;;1.38;1.02;;;;;;;19.19;100.00;99822.69;6161113;23;20004;-91
2023/06/20 00:56:20;;;;;;;1.73;1.63;;;;;;;18.95;100.00;99786.50;6160304;23;20047;-90
2023/06/20 00:58:46;;;;;;;1.50;1.40;;;;;;;19.01;100.00;99792.16;6160327;23;20029;-91
2023/06/20 01:03:54;;;;;;;1.23;1.08;;;;;;;18.87;100.00;99784.66;6143666;23;20344;-84
2023/06/20 01:06:41;;;;;;;1.52;1.42;;;;;;;19.01;100.00;99817.44;6204200;23;20475;-85
2023/06/20 01:09:28;;;;;;;1.33;1.25;;;;;;;18.95;100.00;99809.00;6183576;23;20056;-85
2023/06/20 01:12:03;;;;;;;1.33;1.23;;;;;;;18.99;100.00;99815.16;6210911;23;20017;-86
2023/06/20 01:14:32;;;;;;;1.02;0.77;;;;;;;19.00;100.00;99804.69;6209078;23;20012;-86
2023/06/20 01:17:01;;;;;;;0.80;0.80;;;;;;;18.95;100.00;99813.84;6209582;23;20526;-85
2023/06/20 01:19:49;;;;;;;2.00;1.85;;;;;;;18.84;100.00;99811.72;6184842;23;20016;-85
2023/06/20 01:22:56;;;;;;;1.98;1.88;;;;;;;18.72;100.00;99812.13;6209046;23;20012;-86
2023/06/20 01:25:27;;;;;;;1.63;1.50;;;;;;;18.76;100.00;99812.69;6210480;23;20012;-86
2023/06/20 01:28:07;;;;;;;1.08;1.02;;;;;;;18.77;100.00;99814.19;6208998;23;20028;-85
2023/06/20 01:31:06;;;;;;;1.52;1.33;;;;;;;18.77;100.00;99814.19;6183460;23;20015;-86
2023/06/20 01:33:40;;;;;;;1.33;1.15;;;;;;;18.72;100.00;99787.63;6174814;23;20090;-86
2023/06/20 01:36:07;;;;;;;1.73;1.38;;;;;;;18.77;100.00;99792.50;6180851;23;20095;-86
2023/06/20 01:38:33;;;;;;;2.17;1.98;;;;;;;18.73;100.00;99789.16;6158344;23;20004;-86
2023/06/20 01:40:59;;;;;;;2.42;1.73;;;;;;;18.79;100.00;99792.78;6207644;23;20013;-86
2023/06/20 01:43:25;;;;;;;3.22;2.15;;;;;;;18.79;100.00;99795.59;6208934;23;20031;-86
2023/06/20 01:45:52;;;;;;;0.73;0.73;;;;;;;18.81;100.00;99792.25;6158391;23;20017;-86
2023/06/20 01:48:19;;;;;;;1.13;0.75;;;;;;;18.69;100.00;99779.41;6210311;23;20012;-86
2023/06/20 01:50:46;;;;;;;1.63;1.52;;;;;;;18.68;100.00;99783.50;6208084;23;20079;-86
2023/06/20 01:53:12;;;;;;;1.63;1.42;;;;;;;18.64;100.00;99786.53;6158396;23;20017;-86
2023/06/20 01:55:41;;;;;;;4.15;2.53;;;;;;;18.70;100.00;99786.56;6209430;23;20451;-86
2023/06/20 01:58:07;;;;;;;1.38;0.98;;;;;;;18.76;100.00;99790.22;6183445;23;20024;-86
2023/06/20 02:00:34;;;;;;;2.33;1.42;;;;;;;18.77;100.00;99786.09;6157598;23;20008;-86
2023/06/20 02:03:00;;;;;;;0.70;0.70;;;;;;;18.76;100.00;99793.00;6208321;23;20091;-86
2023/06/20 02:05:28;;;;;;;2.35;2.13;;;;;;;18.71;100.00;99785.31;6183042;23;20470;-86
2023/06/20 02:07:55;;;;;;;1.00;0.90;;;;;;;18.56;100.00;99772.16;6209338;23;20012;-86
2023/06/20 02:10:21;;;;;;;0.75;0.75;;;;;;;18.43;100.00;99773.81;6183110;23;20016;-86
2023/06/20 02:12:49;;;;;;;3.97;1.73;;;;;;;18.37;100.00;99782.19;6183578;23;20435;-86
2023/06/20 02:15:16;;;;;;;1.60;1.33;;;;;;;18.26;100.00;99770.84;6182036;23;20028;-86
2023/06/20 02:17:43;;;;;;;2.70;1.38;;;;;;;18.23;100.00;99773.88;6183015;23;20100;-86
2023/06/20 02:20:10;;;;;;;2.33;1.48;;;;;;;18.07;100.00;99761.22;6182714;23;20059;-86
2023/06/20 02:22:36;;;;;;;0.93;0.90;;;;;;;18.05;100.00;99783.38;6208373;23;20091;-86
2023/06/20 02:25:05;;;;;;;2.05;1.55;;;;;;;18.10;100.00;99786.25;6158138;23;20019;-86
2023/06/20 02:27:32;;;;;;;0.80;0.73;;;;;;;18.05;100.00;99780.56;6183525;23;20016;-86
2023/06/20 02:29:59;;;;;;;0.77;0.73;;;;;;;18.11;100.00;99792.66;6208192;23;20039;-86
2023/06/20 02:32:26;;;;;;;0.77;0.77;;;;;;;18.03;100.00;99783.13;6183373;23;20011;-86
2023/06/20 02:34:54;;;;;;;0.80;0.68;;;;;;;18.08;100.00;99771.94;6183433;23;20012;-85
2023/06/20 02:37:22;;;;;;;1.27;1.17;;;;;;;18.10;100.00;99785.50;6183125;23;20451;-86
2023/06/20 02:39:48;;;;;;;2.35;2.15;;;;;;;18.11;100.00;99789.84;6210363;23;20017;-86
2023/06/20 02:42:14;;;;;;;1.40;1.30;;;;;;;18.11;100.00;99792.66;6182581;23;20433;-86
2023/06/20 02:44:39;;;;;;;2.10;1.77;;;;;;;18.12;100.00;99785.75;6183513;23;20019;-86
2023/06/20 02:47:23;;;;;;;2.47;1.48;;;;;;;18.10;100.00;99791.88;6180993;23;20013;-86
2023/06/20 02:49:58;;;;;;;1.00;0.93;;;;;;;18.09;100.00;99795.94;6182567;23;20349;-85
2023/06/20 02:52:27;;;;;;;1.08;0.98;;;;;;;18.05;100.00;99794.63;6182909;23;20009;-86
2023/06/20 02:55:12;;;;;;;1.38;1.05;;;;;;;18.04;100.00;99793.06;6182196;23;20041;-86
2023/06/20 02:57:46;;;;;;;1.60;1.42;;;;;;;17.95;100.00;99790.44;6206983;23;20028;-86
2023/06/20 03:00:13;;;;;;;1.92;1.58;;;;;;;17.93;100.00;99801.38;6182793;23;20017;-86
2023/06/20 03:02:48;;;;;;;2.15;1.00;;;;;;;17.89;100.00;99795.19;6182216;23;20098;-86
2023/06/20 03:05:15;;;;;;;2.63;1.20;;;;;;;17.88;100.00;99802.84;6182186;23;20012;-86
2023/06/20 03:07:42;;;;;;;1.42;1.33;;;;;;;17.88;100.00;99802.06;6183203;23;20460;-85
2023/06/20 03:10:08;;;;;;;2.90;1.98;;;;;;;17.86;100.00;99815.84;6183214;23;20011;-86
2023/06/20 03:12:34;;;;;;;1.30;1.20;;;;;;;17.83;100.00;99812.00;6183568;23;20411;-86
2023/06/20 03:15:00;;;;;;;0.80;0.80;;;;;;;17.84;100.00;99812.72;6158229;23;20345;-86
2023/06/20 03:17:27;;;;;;;1.13;1.05;;;;;;;17.83;100.00;99811.22;6183092;23;20047;-86
2023/06/20 03:19:52;;;;;;;2.22;1.77;;;;;;;17.83;100.00;99816.81;6208099;23;20095;-86
2023/06/20 03:22:21;;;;;;;2.10;1.63;;;;;;;17.91;100.00;99827.13;6182683;23;20039;-86
2023/06/20 03:24:49;;;;;;;0.80;0.60;;;;;;;17.84;100.00;99815.53;6209366;23;20012;-86
2023/06/20 03:27:14;;;;;;;1.60;1.50;;;;;;;17.97;100.00;99815.94;6184294;23;20023;-86
2023/06/20 03:29:40;;;;;;;0.93;0.93;;;;;;;17.97;100.00;99822.34;6210676;23;20016;-86
2023/06/20 03:32:07;;;;;;;1.70;1.52;;;;;;;17.92;100.00;99813.84;6184521;23;20096;-86
2023/06/20 03:34:32;;;;;;;1.17;1.17;;;;;;;17.99;100.00;99824.66;6184770;23;20013;-86
2023/06/20 03:36:58;;;;;;;0.80;0.80;;;;;;;18.04;100.00;99829.56;6184047;23;20031;-86
2023/06/20 03:39:23;;;;;;;2.53;1.70;;;;;;;18.00;100.00;99820.56;6211652;23;20401;-86
2023/06/20 03:41:50;;;;;;;2.70;2.40;;;;;;;17.88;100.00;99802.06;6183688;23;20023;-85
2023/06/20 03:44:17;;;;;;;1.85;1.27;;;;;;;18.02;100.00;99827.25;6184243;23;20004;-85
2023/06/20 03:46:42;;;;;;;4.07;1.92;;;;;;;18.14;100.00;99842.19;6183632;23;20023;-86
2023/06/20 03:49:09;;;;;;;1.35;1.25;;;;;;;18.18;100.00;99837.13;6184369;23;20317;-86
2023/06/20 03:51:34;;;;;;;2.85;1.83;;;;;;;18.27;100.00;99845.41;6184598;23;20019;-86
2023/06/20 03:54:01;;;;;;;1.17;1.15;;;;;;;18.26;100.00;99843.06;6210295;23;20024;-86
2023/06/20 03:56:26;;;;;;;2.03;1.77;;;;;;;18.34;100.00;99852.59;6184858;23;20013;-86
2023/06/20 03:58:54;;;;;;;0.77;0.77;;;;;;;18.36;100.00;99855.69;6184245;23;20021;-86
2023/06/20 04:01:19;;;;;;;0.77;0.77;;;;;;;18.39;100.00;99855.47;6182732;23;20016;-86
2023/06/20 04:03:45;;;;;;;2.08;1.42;;;;;;;18.40;100.00;99854.19;6209645;23;20040;-86
2023/06/20 04:06:11;;;;;;;1.35;1.25;;;;;;;18.49;100.00;99865.25;6208808;23;20080;-86
2023/06/20 04:08:37;;;;;;;1.83;1.73;;;;;;;18.42;100.00;99846.06;6210587;23;20015;-86
2023/06/20 04:11:03;;;;;;;1.60;1.50;;;;;;;18.45;100.00;99855.50;6207876;23;20012;-86
2023/06/20 04:13:29;;;;;;;1.08;0.93;;;;;;;18.46;100.00;99857.84;6183401;23;20062;-86
2023/06/20 04:15:54;;;;;;;1.85;1.30;;;;;;;18.47;100.00;99865.00;6182774;23;20076;-86
2023/06/20 04:18:20;;;;;;;1.90;1.75;;;;;;;18.53;100.00;99862.25;6209329;23;20023;-86
2023/06/20 04:20:45;;;;;;;1.27;1.20;;;;;;;18.59;100.00;99860.28;6182889;23;20039;-86
2023/06/20 04:23:11;;;;;;;6.55;1.85;;;;;;;18.63;100.00;99869.28;6210329;23;20023;-86
2023/06/20 04:25:36;;;;;;;2.03;1.23;;;;;;;18.69;100.00;99856.03;6208055;23;20357;-86
2023/06/20 04:28:02;;;;;;;1.55;1.40;;;;;;;18.60;100.00;99851.34;6208827;23;20070;-85
2023/06/20 04:30:39;;;;;;;5.68;2.22;;;;;;;18.74;100.00;99871.41;6207306;23;20040;-85
2023/06/20 04:33:05;;;;;;;1.85;1.33;;;;;;;18.76;100.00;99868.88;6183205;23;20021;-85
2023/06/20 04:35:31;;;;;;;3.40;1.30;;;;;;;18.71;100.00;99861.16;6181745;23;20012;-85
2023/06/20 04:38:01;;;;;;;2.33;2.13;;;;;;;18.72;100.00;99857.09;6207020;23;20017;-86
2023/06/20 04:40:27;;;;;;;2.55;1.50;;;;;;;18.81;100.00;99860.47;6182530;23;20066;-85
2023/06/20 04:42:52;;;;;;;1.33;1.23;;;;;;;18.92;100.00;99859.81;6182888;23;20016;-86
2023/06/20 04:45:18;;;;;;;4.13;1.05;;;;;;;18.99;100.00;99864.97;6182384;23;20035;-85
2023/06/20 04:47:43;;;;;;;1.25;1.10;;;;;;;19.07;100.00;99854.81;6208468;23;20020;-85
2023/06/20 04:50:09;;;;;;;1.23;0.82;;;;;;;19.12;100.00;99851.28;6209492;23;20004;-85
2023/06/20 04:52:36;;;;;;;2.58;1.85;;;;;;;19.21;100.00;99853.88;6209687;23;20016;-86
2023/06/20 04:55:04;;;;;;;2.22;1.50;;;;;;;19.34;100.00;99857.03;6183801;23;20009;-86
2023/06/20 04:57:30;;;;;;;1.98;0.82;;;;;;;19.49;100.00;99852.06;6212351;23;20020;-86
2023/06/20 04:59:56;;;;;;;0.90;0.73;;;;;;;19.65;100.00;99861.88;6189475;23;20480;-86
2023/06/20 05:02:22;;;;;;;4.68;1.77;;;;;;;19.70;100.00;99863.94;6209563;23;20012;-86
2023/06/20 05:04:47;;;;;;;2.22;2.08;;;;;;;19.78;100.00;99856.56;6154507;23;20063;-86
2023/06/20 05:07:13;;;;;;;1.83;1.58;;;;;;;19.88;100.00;99859.94;6132331;23;20016;-86
2023/06/20 05:09:38;;;;;;;1.95;1.85;;;;;;;20.03;100.00;99864.09;6106937;23;20017;-86
2023/06/20 05:12:04;;;;;;;1.38;1.23;;;;;;;20.16;100.00;99869.25;6181629;23;20424;-86
2023/06/20 05:14:30;;;;;;;1.92;1.60;;;;;;;20.26;100.00;99872.63;6182788;23;20013;-86
2023/06/20 05:16:55;;;;;;;1.13;1.05;;;;;;;20.41;100.00;99868.34;6185670;23;20017;-85
2023/06/20 05:19:21;;;;;;;1.55;1.45;;;;;;;20.54;100.00;99859.41;6185902;23;20020;-85
2023/06/20 05:21:46;;;;;;;4.15;1.73;;;;;;;20.72;100.00;99878.63;6179591;23;20013;-86
2023/06/20 05:24:12;;;;;;;1.63;1.10;;;;;;;20.83;100.00;99877.84;6180927;23;20017;-87
2023/06/20 05:26:38;;;;;;;1.40;1.27;;;;;;;20.97;100.00;99887.34;6153748;23;20008;-86
2023/06/20 05:29:03;;;;;;;2.13;1.58;;;;;;;21.08;100.00;99874.00;6179001;23;20032;-86
2023/06/20 05:31:29;;;;;;;1.13;0.70;;;;;;;21.20;100.00;99872.75;6180443;23;20059;-85
2023/06/20 05:33:55;;;;;;;1.50;1.38;;;;;;;21.37;100.00;99873.50;6178945;23;20084;-86
2023/06/20 05:36:20;;;;;;;1.25;1.02;;;;;;;21.47;100.00;99861.97;6179728;23;20099;-86
2023/06/20 05:38:48;;;;;;;1.23;1.13;;;;;;;;;;6154601;23;20008;-85
2023/06/20 05:41:15;;;;;;;1.50;0.98;;;;;;;21.99;100.00;99874.13;6180121;23;20020;-85
2023/06/20 05:43:40;;;;;;;2.35;1.52;;;;;;;22.20;100.00;99878.13;6105038;23;20179;-86
2023/06/20 05:46:06;;;;;;;2.78;1.95;;;;;;;22.47;100.00;99893.41;6178353;23;20013;-85
2023/06/20 05:48:32;;;;;;;1.40;1.30;;;;;;;22.56;100.00;99881.81;6153265;23;20008;-86
2023/06/20 05:51:00;;;;;;;3.83;1.70;;;;;;;22.89;100.00;99889.28;6177909;23;20016;-86
2023/06/20 05:53:26;;;;;;;1.67;1.13;;;;;;;23.10;100.00;99881.16;6153477;23;20013;-86
2023/06/20 05:55:52;;;;;;;2.25;2.13;;;;;;;23.19;100.00;99861.78;6178539;23;20078;-85
2023/06/20 05:58:18;;;;;;;1.88;1.45;;;;;;;23.59;100.00;99882.00;6152550;23;20393;-86
2023/06/20 06:00:45;;;;;;;3.50;1.52;;;;;;;23.86;100.00;99889.41;6177108;23;20024;-86
2023/06/20 06:03:11;;;;;;;0.93;0.93;;;;;;;24.16;100.00;99892.19;6178514;23;20039;-85
2023/06/20 06:05:37;;;;;;;3.55;1.00;;;;;;;24.36;100.00;99888.06;6175320;23;20017;-83
2023/06/20 06:08:03;;;;;;;2.08;1.55;;;;;;;24.44;100.00;99906.00;6178316;23;20017;-84
2023/06/20 06:10:28;;;;;;;6.97;1.95;;;;;;;24.35;100.00;99900.69;6151101;23;20017;-84
2023/06/20 06:12:54;;;;;;;1.38;1.25;;;;;;;24.24;100.00;99895.94;6177764;23;20013;-83
2023/06/20 06:15:20;;;;;;;3.28;1.83;;;;;;;24.11;100.00;99888.09;6176553;23;20495;-86
2023/06/20 06:17:45;;;;;;;1.23;1.13;;;;;;;24.42;100.00;99905.78;6146647;23;20013;-86
2023/06/20 06:20:17;;;;;;;3.47;2.55;;;;;;;24.63;100.00;99909.56;6126497;23;20017;-90
2023/06/20 06:22:43;;;;;;;2.25;2.05;;;;;;;24.77;100.00;99888.50;6150639;23;20461;-88
2023/06/20 06:25:09;;;;;;;1.35;1.25;;;;;;;25.02;100.00;99897.69;6148658;23;20021;-87
2023/06/20 06:27:34;;;;;;;1.42;0.95;;;;;;;25.20;100.00;99896.06;6124245;23;20040;-87
2023/06/20 06:30:01;;;;;;;3.60;2.45;;;;;;;25.48;100.00;99896.34;6175599;23;20330;-90
2023/06/20 06:32:27;;;;;;;2.38;1.90;;;;;;;25.74;100.00;99922.00;6150055;23;20254;-89
2023/06/20 06:34:54;;;;;;;3.15;1.77;;;;;;;25.63;100.00;99905.16;6125836;23;20013;-93
2023/06/20 06:37:20;;;;;;;2.03;1.17;;;;;;;25.48;100.00;99882.94;6150546;23;20012;-92
2023/06/20 06:39:46;;;;;;;2.03;1.33;;;;;;;25.68;100.00;99887.22;6126750;23;20017;-92
2023/06/20 06:42:12;;;;;;;2.40;1.48;;;;;;;26.04;100.00;99915.22;6173913;23;20039;-92
2023/06/20 06:44:38;;;;;;;1.70;1.50;;;;;;;26.17;100.00;99915.19;6102630;23;20510;-91
2023/06/20 06:47:04;;;;;;;2.55;1.20;;;;;;;25.97;100.00;99891.81;6151658;23;20345;-91
2023/06/20 06:49:31;;;;;;;2.08;1.83;;;;;;;26.17;100.00;99909.50;6102889;23;20013;-92
2023/06/20 06:51:56;;;;;;;1.50;1.40;;;;;;;25.92;100.00;99884.16;6177164;23;20020;-92
2023/06/20 06:54:22;;;;;;;2.63;1.73;;;;;;;26.37;100.00;99903.16;6127031;23;20093;-93
2023/06/20 06:56:48;;;;;;;1.73;1.58;;;;;;;26.62;100.00;99901.56;6126473;23;20438;-92
2023/06/20 06:59:13;;;;;;;2.53;2.13;;;;;;;26.92;100.00;99897.56;6151022;23;20032;-92
2023/06/20 07:01:39;;;;;;;2.22;1.67;;;;;;;27.28;99.74;99901.31;6176474;23;20009;-92
2023/06/20 07:04:05;;;;;;;2.40;1.83;;;;;;;27.31;94.78;99874.56;6130935;23;20017;-91
2023/06/20 07:06:30;;;;;;;1.60;1.50;;;;;;;27.31;94.41;99900.19;6127336;23;20074;-91
2023/06/20 07:08:56;;;;;;;3.80;1.80;;;;;;;27.25;92.68;99891.81;6177892;23;20017;-92
2023/06/20 07:11:22;;;;;;;1.55;1.23;;;;;;;27.44;89.48;99900.13;6151683;23;20306;-92
2023/06/20 07:13:47;;;;;;;1.67;1.45;;;;;;;27.67;85.60;99906.00;6127281;23;20013;-94
2023/06/20 07:16:13;;;;;;;2.85;2.00;;;;;;;27.71;81.39;99901.47;6153392;23;20043;-91
2023/06/20 07:18:39;;;;;;;0.85;0.85;;;;;;;27.88;81.01;99911.66;6130055;23;20075;-91
2023/06/20 07:21:04;;;;;;;0.63;0.63;;;;;;;27.97;78.50;99894.03;6151592;23;20445;-92
2023/06/20 07:23:30;;;;;;;2.00;1.40;;;;;;;27.85;76.34;99919.25;6154001;23;20326;-91
2023/06/20 07:25:55;;;;;;;2.70;2.08;;;;;;;27.78;73.31;99897.91;6179737;23;20020;-92
2023/06/20 07:28:21;;;;;;;1.95;1.23;;;;;;;27.74;78.23;99900.34;6154583;23;20014;-93
2023/06/20 07:30:46;;;;;;;2.58;2.03;;;;;;;27.46;78.85;99885.31;6178302;23;20407;-92
2023/06/20 07:33:12;;;;;;;2.88;2.53;;;;;;;27.60;81.90;99898.16;6153727;23;20017;-93
2023/06/20 07:35:37;;;;;;;1.60;1.48;;;;;;;27.91;78.93;99890.56;6180005;23;20020;-92
2023/06/20 07:38:03;;;;;;;1.77;1.55;;;;;;;28.15;74.50;99884.44;6154058;23;20123;-92
2023/06/20 07:40:31;;;;;;;0.90;0.80;;;;;;;28.48;73.86;99899.81;6180333;23;20015;-93
2023/06/20 07:42:57;;;;;;;1.30;1.20;;;;;;;28.67;71.36;99898.16;6154098;23;20432;-92
2023/06/20 07:45:22;;;;;;;2.15;1.83;;;;;;;28.79;70.87;99904.31;6129654;23;20027;-92
2023/06/20 07:47:48;;;;;;;1.45;1.33;;;;;;;28.76;70.56;99908.28;6178166;23;20412;-92
2023/06/20 07:50:14;;;;;;;1.50;1.15;;;;;;;28.90;68.79;99917.47;6153931;23;20572;-92
2023/06/20 07:52:40;;;;;;;1.45;1.35;;;;;;;29.13;68.89;99916.16;6153817;23;20461;-92
2023/06/20 07:55:11;;;;;;;1.75;1.65;;;;;;;29.15;65.53;99909.91;6180178;23;20016;-92
2023/06/20 07:57:37;;;;;;;2.08;1.52;;;;;;;28.59;67.94;99900.22;6129917;23;20020;-93
2023/06/20 08:00:05;;;;;;;1.98;1.75;;;;;;;28.88;68.19;99897.28;6153723;23;20005;-93
2023/06/20 08:02:38;;;;;;;2.55;2.22;;;;;;;28.82;67.97;99888.16;6132678;23;20021;-92
2023/06/20 08:05:04;;;;;;;1.27;1.17;;;;;;;29.17;66.46;99918.66;6170886;23;20013;-91
2023/06/20 08:07:30;;;;;;;1.20;1.10;;;;;;;29.05;64.66;99906.84;6178648;23;20017;-93
2023/06/20 08:10:00;;;;;;;2.97;2.08;;;;;;;29.02;67.63;99892.94;6154252;23;20060;-93
2023/06/20 08:12:25;;;;;;;1.83;1.38;;;;;;;29.46;66.59;99899.25;6154342;23;20082;-92
2023/06/20 08:14:51;;;;;;;2.22;0.95;;;;;;;29.95;64.97;99905.31;6131369;23;20450;-92
2023/06/20 08:17:17;;;;;;;1.90;1.73;;;;;;;30.22;64.59;99917.06;6155007;23;20440;-94
2023/06/20 08:19:42;;;;;;;2.20;1.65;;;;;;;30.30;58.25;99923.50;6182161;23;20084;-93
2023/06/20 08:22:08;;;;;;;3.05;2.08;;;;;;;30.43;57.94;99925.38;6179232;23;20043;-92
2023/06/20 08:24:34;;;;;;;1.83;1.40;;;;;;;30.47;55.84;99917.94;6180382;23;20036;-93
2023/06/20 08:27:00;;;;;;;1.15;1.13;;;;;;;30.39;56.70;99922.91;6155136;23;20541;-91
2023/06/20 08:29:25;;;;;;;1.73;1.63;;;;;;;30.41;56.32;99923.09;6179727;23;20021;-91
2023/06/20 08:31:51;;;;;;;1.60;1.50;;;;;;;30.61;56.81;99911.97;6204965;23;20013;-90
2023/06/20 08:34:16;;;;;;;3.40;1.88;;;;;;;30.63;54.98;99906.41;6154519;23;20009;-93
2023/06/20 08:36:43;;;;;;;1.70;1.48;;;;;;;30.85;53.87;99891.22;6154633;23;20091;-90
2023/06/20 08:39:09;;;;;;;4.25;1.98;;;;;;;31.15;52.75;99884.53;6154700;23;20035;-88
2023/06/20 08:41:34;;;;;;;1.60;1.40;;;;;;;31.43;50.79;99910.66;6181391;23;20100;-89
2023/06/20 08:44:00;;;;;;;1.90;1.70;;;;;;;30.93;49.69;99898.44;6179621;23;20005;-87
2023/06/20 08:46:26;;;;;;;2.05;1.77;;;;;;;30.74;53.98;99886.69;6179173;23;20005;-88
2023/06/20 08:48:51;;;;;;;2.97;1.77;;;;;;;30.99;53.98;99906.81;6179682;23;20013;-88
2023/06/20 08:51:17;;;;;;;2.35;2.15;;;;;;;31.08;50.90;99916.88;6178483;23;20452;-88
2023/06/20 08:53:48;;;;;;;5.05;2.17;;;;;;;31.09;51.67;99898.34;6155479;23;20091;-88
2023/06/20 08:56:17;;;;;;;1.48;1.05;;;;;;;31.20;49.18;99900.72;6178937;23;20013;-89
2023/06/20 08:58:43;;;;;;;1.42;1.25;;;;;;;31.00;50.30;99905.47;6179839;23;20136;-90
2023/06/20 09:01:08;;;;;;;1.33;1.20;;;;;;;31.14;51.83;99911.69;6178955;23;20348;-90
2023/06/20 09:03:35;;;;;;;1.25;1.15;;;;;;;30.97;52.33;99904.50;6183865;23;20392;-90
2023/06/20 09:06:01;;;;;;;2.75;1.45;;;;;;;31.13;52.23;99899.47;6183136;23;20067;-90
2023/06/20 09:08:53;;;;;;;1.50;1.05;;;;;;;31.28;52.07;99905.06;6183878;23;20021;-90
2023/06/20 09:11:19;;;;;;;1.63;1.08;;;;;;;31.36;50.45;99900.03;6129205;23;20075;-90
2023/06/20 09:13:44;;;;;;;1.38;1.27;;;;;;;31.15;52.20;99908.22;6160021;23;20388;-89
2023/06/20 09:16:11;;;;;;;2.65;2.22;;;;;;;31.55;49.01;99910.19;6184203;23;20027;-90
2023/06/20 09:18:40;;;;;;;0.90;0.90;;;;;;;31.75;46.78;99914.78;6210201;23;20040;-90
2023/06/20 09:21:06;;;;;;;1.30;1.20;;;;;;;31.69;45.84;99908.56;6183787;23;20017;-90
2023/06/20 09:23:33;;;;;;;1.60;1.48;;;;;;;31.73;45.34;99909.66;6159995;23;20063;-90
2023/06/20 09:26:15;;;;;;;3.72;2.53;;;;;;;31.63;48.35;99913.75;6209687;23;20013;-89
2023/06/20 09:28:43;;;;;;;1.30;1.20;;;;;;;31.48;49.79;99909.66;6184950;23;20041;-89
2023/06/20 09:31:13;;;;;;;2.38;2.08;;;;;;;31.39;49.88;99875.91;6159679;23;20336;-89
2023/06/20 09:33:39;;;;;;;1.08;1.02;;;;;;;31.67;51.77;99880.47;6160009;23;20449;-89
2023/06/20 09:36:16;;;;;;;3.50;1.92;;;;;;;31.60;49.03;99917.81;6158237;23;20027;-88
2023/06/20 09:38:50;;;;;;;1.75;1.40;;;;;;;31.36;51.04;99885.69;6159043;23;20016;-89
2023/06/20 09:41:19;;;;;;;1.60;0.88;;;;;;;31.60;51.39;99926.41;6159543;23;20019;-89
2023/06/20 09:43:45;;;;;;;1.25;1.15;;;;;;;31.94;51.24;99912.13;6183948;23;20024;-88
2023/06/20 09:46:10;;;;;;;1.80;1.67;;;;;;;31.87;49.46;99893.63;6158806;23;20009;-88
2023/06/20 09:48:37;;;;;;;1.52;1.40;;;;;;;31.59;49.99;99916.28;6159706;23;20032;-89
2023/06/20 09:51:05;;;;;;;1.52;1.42;;;;;;;31.42;53.62;99905.53;6157292;23;20123;-88
2023/06/20 09:54:04;;;;;;;1.48;1.30;;;;;;;31.36;51.42;99890.66;6159457;23;20048;-88
2023/06/20 09:56:30;;;;;;;2.30;1.60;;;;;;;31.46;51.28;99898.00;6152017;23;20021;-88
2023/06/20 09:58:59;;;;;;;3.28;2.67;;;;;;;31.93;49.91;99899.13;6182898;23;20040;-88
2023/06/20 10:01:28;;;;;;;1.42;1.33;;;;;;;32.17;48.90;99883.97;6208075;23;20096;-88
2023/06/20 10:03:55;;;;;;;1.60;1.50;;;;;;;32.29;47.18;99902.19;6158737;23;20016;-88
2023/06/20 10:06:22;;;;;;;2.50;1.77;;;;;;;32.05;48.43;99874.31;6183678;23;20009;-88
2023/06/20 10:08:48;;;;;;;2.22;1.88;;;;;;;32.02;49.05;99898.47;6211098;23;20042;-89
2023/06/20 10:11:13;;;;;;;1.50;1.23;;;;;;;32.03;51.04;99882.75;6183889;23;20043;-89
2023/06/20 10:13:42;;;;;;;1.45;1.35;;;;;;;32.46;49.48;99880.53;6209095;23;20345;-88
2023/06/20 10:16:08;;;;;;;1.45;1.27;;;;;;;31.47;51.86;99872.97;6208869;23;20068;-88
2023/06/20 10:18:35;;;;;;;3.70;2.10;;;;;;;31.62;53.84;99886.47;6183906;23;20040;-88
2023/06/20 10:21:05;;;;;;;1.75;1.40;;;;;;;31.73;53.07;99885.97;6158056;23;20012;-89
2023/06/20 10:23:32;;;;;;;1.63;1.52;;;;;;;31.21;54.28;99890.81;6209585;23;20011;-88
2023/06/20 10:26:02;;;;;;;2.53;1.77;;;;;;;31.29;52.56;99877.94;6183795;23;20036;-89
2023/06/20 10:28:28;;;;;;;3.05;0.82;;;;;;;31.53;50.49;99872.75;6159205;23;20038;-88
2023/06/20 10:30:57;;;;;;;1.88;1.70;;;;;;;31.45;51.97;99890.78;6183459;23;20098;-89
2023/06/20 10:33:29;;;;;;;2.10;1.45;;;;;;;31.48;53.24;99895.34;6211170;23;20091;-88
2023/06/20 10:35:59;;;;;;;1.52;1.42;;;;;;;31.84;49.70;99894.06;6181832;23;20017;-88
2023/06/20 10:38:25;;;;;;;1.95;1.63;;;;;;;32.30;48.77;99892.22;6159345;23;20026;-88
2023/06/20 10:41:24;;;;;;;1.92;1.65;;;;;;;32.40;45.66;99877.94;6158965;23;20012;-87
2023/06/20 10:43:57;;;;;;;2.33;1.80;;;;;;;32.43;46.41;99881.75;6119425;23;20028;-87
2023/06/20 10:46:29;;;;;;;1.95;1.65;;;;;;;32.31;48.66;99878.63;6183188;23;20021;-87
2023/06/20 10:48:55;;;;;;;3.10;2.75;;;;;;;32.46;48.18;99880.53;6183004;23;20518;-88
2023/06/20 10:51:21;;;;;;;2.53;1.83;;;;;;;32.79;46.76;99868.25;6182588;23;20001;-88
2023/06/20 10:53:46;;;;;;;1.23;1.05;;;;;;;32.98;45.76;99884.03;6183554;23;20035;-89
2023/06/20 10:56:26;;;;;;;2.15;1.67;;;;;;;32.59;44.24;99885.94;6183282;23;20021;-89
2023/06/20 10:58:51;;;;;;;1.42;1.33;;;;;;;32.64;44.40;99890.66;6209900;23;20094;-89
2023/06/20 11:01:18;;;;;;;1.00;0.90;;;;;;;32.89;45.31;99874.00;6207776;23;20421;-90
2023/06/20 11:03:45;;;;;;;2.92;1.35;;;;;;;33.08;43.78;99876.97;6207961;23;20040;-89
2023/06/20 11:06:15;;;;;;;1.40;1.30;;;;;;;32.87;41.49;99868.13;6207923;23;20013;-89
2023/06/20 11:08:45;;;;;;;2.30;1.35;;;;;;;32.89;41.52;99859.66;6159001;23;20024;-88
2023/06/20 11:11:10;;;;;;;1.60;1.50;;;;;;;32.49;42.21;99857.16;6207715;23;20515;-89
2023/06/20 11:13:42;;;;;;;1.98;1.42;;;;;;;32.65;42.39;99855.59;6183688;23;20009;-89
2023/06/20 11:16:19;;;;;;;2.28;1.73;;;;;;;32.30;44.04;99860.66;6181367;23;20017;-88
2023/06/20 11:18:45;;;;;;;1.58;1.48;;;;;;;32.05;44.60;99865.72;6178995;23;20028;-89
2023/06/20 11:21:11;;;;;;;2.53;1.25;;;;;;;32.11;45.59;99854.75;6206220;23;20344;-90
2023/06/20 11:23:36;;;;;;;1.88;1.38;;;;;;;32.41;45.38;99865.09;6181965;23;20344;-90
2023/06/20 11:26:02;;;;;;;1.00;0.93;;;;;;;32.40;44.35;99857.84;6180182;23;20403;-89
2023/06/20 11:28:29;;;;;;;2.05;1.77;;;;;;;32.87;43.76;99868.13;6207218;23;20474;-90
2023/06/20 11:30:54;;;;;;;2.00;1.33;;;;;;;33.18;42.42;99868.41;6179900;23;20021;-89
2023/06/20 11:33:20;;;;;;;1.63;1.33;;;;;;;32.95;42.91;99860.16;6205440;23;20017;-90